Airfield :
LOGIN :

Register | Disclaimer

   EN    FR    IT 

 










Legend :    VFR   Marginal VFR   IFR   Intensive IFR   Very Intensive IFR
Visi :
Ceiling :
>= 8 km
>= 3000ft
5 to 8 km
1000 to 3000 ft
1500m to 5 km
500 to 1000 ft
800 to 1500m
200 to 500 ft
< 800m
< 200 ft
Symbols :   Thunderstorms  Fog  Heavy snow  Heavy precipitations  Wind > 20 kt
SIGMETs :     Misc.  Thunderstorms  Icing  Turbulence  Mountain Waves  Volcanic Ashes






- Airport Elevation : 408 ft
- IATA code : SOB


LHSM - Sarmellek Balaton

CURRENT METAR :
  • 250345Z AUTO 00000KT 3900 BR VV003 M02/M02 Q1024

EXPIRED METARs :
  • 250315Z AUTO 19003KT 3000 BR OVC002 M02/M02 Q1024
  • 250245Z AUTO VRB02KT 2800 BR OVC002 M02/M02 Q1024
  • 250215Z AUTO VRB02KT 3200 BR OVC002 M02/M02 Q1024
  • 250145Z AUTO 22002KT 3200 BR OVC002 M02/M02 Q1025
  • 250115Z AUTO 23002KT 3800 BR BKN002 M01/M02 Q1025

Expired Forecast.



MET'MAP, your aeronautical weather chart ! - Copyright ORBIFLY December 2007 - Disclaimer

ORBIFLY MET'MAP TEAM :

Programming & Development : Alexandra Zaïnal
Concept & original design : Baudouin d'Aumeries
Assistance for programming : Marc-Olivier Méhu
Technical & hardware support : Manuel Goepfert

Contact : metmap@orbifly.com




SOURCES & CREDITS :

   NOAA